Time;durP1;ratioP1;P1;durP2;ratioP2;P2;SDS_P1;SDS_P2;PMS_P1;PMS_P2;Temp;Humidity;BMP_temperature;BMP_pressure;BME280_temperature;BME280_humidity;BME280_pressure;Samples;Min_cycle;Max_cycle;Signal;HPM_P1;HPM_P2
2021/09/24 00:00:31;;;;;;;4.73;4.30;;;16.50;99.90;;;;;;5042980;28;20502;-81
2021/09/24 00:02:57;;;;;;;4.30;3.90;;;16.40;99.90;;;;;;5043607;28;20498;-81
2021/09/24 00:05:23;;;;;;;3.80;3.50;;;16.40;99.90;;;;;;5042908;28;20423;-81
2021/09/24 00:07:49;;;;;;;5.67;3.70;;;16.30;99.90;;;;;;5010027;28;20164;-81
2021/09/24 00:10:17;;;;;;;4.13;3.73;;;16.20;99.90;;;;;;5040146;28;20221;-81
2021/09/24 00:12:43;;;;;;;4.73;4.27;;;16.20;99.90;;;;;;5023933;28;20484;-82
2021/09/24 00:15:12;;;;;;;3.80;3.50;;;16.30;99.90;;;;;;5021941;28;20424;-81
2021/09/24 00:17:38;;;;;;;6.77;3.87;;;16.30;99.90;;;;;;5022990;28;20166;-81
2021/09/24 00:20:06;;;;;;;7.73;4.23;;;16.40;99.90;;;;;;5022080;28;20492;-81
2021/09/24 00:22:32;;;;;;;5.03;3.37;;;16.40;99.90;;;;;;5021827;28;20173;-81
2021/09/24 00:24:58;;;;;;;8.00;4.10;;;16.40;99.90;;;;;;5020903;28;20392;-81
2021/09/24 00:27:24;;;;;;;10.73;4.53;;;16.40;99.90;;;;;;5037517;28;20404;-81
2021/09/24 00:29:49;;;;;;;4.73;4.30;;;16.40;99.90;;;;;;5022114;28;20165;-81
2021/09/24 00:32:15;;;;;;;4.50;3.10;;;16.50;99.90;;;;;;5021874;28;20193;-81
2021/09/24 00:34:41;;;;;;;6.37;4.13;;;16.30;99.90;;;;;;5037660;28;20581;-81
2021/09/24 00:37:07;;;;;;;4.70;4.30;;;16.30;99.90;;;;;;5037021;28;20248;-82
2021/09/24 00:39:36;;;;;;;4.57;4.17;;;16.50;99.90;;;;;;5022146;28;20449;-81
2021/09/24 00:42:02;;;;;;;4.90;4.23;;;16.60;99.90;;;;;;5027239;28;20215;-78
2021/09/24 00:44:38;;;;;;;3.93;3.63;;;16.50;99.90;;;;;;5025094;28;20891;-81
2021/09/24 00:47:04;;;;;;;5.10;4.40;;;16.60;99.90;;;;;;5021956;28;20565;-82
2021/09/24 00:49:30;;;;;;;5.47;4.97;;;16.60;99.90;;;;;;5020285;28;20400;-81
2021/09/24 00:51:57;;;;;;;5.63;4.37;;;16.60;99.90;;;;;;5021437;28;20466;-82
2021/09/24 00:54:23;;;;;;;7.90;4.30;;;16.50;99.90;;;;;;5036144;28;20196;-81
2021/09/24 00:56:52;;;;;;;6.33;3.57;;;16.20;99.90;;;;;;5020964;28;20404;-81
2021/09/24 00:59:18;;;;;;;5.33;4.40;;;16.10;99.90;;;;;;5021283;28;20223;-81
2021/09/24 01:01:46;;;;;;;7.87;4.57;;;16.00;99.90;;;;;;5020446;28;20747;-82
2021/09/24 01:04:12;;;;;;;4.07;3.73;;;15.90;99.90;;;;;;5019619;28;20396;-81
2021/09/24 01:06:40;;;;;;;4.73;4.20;;;15.80;99.90;;;;;;5021437;28;20721;-81
2021/09/24 01:09:06;;;;;;;5.00;4.20;;;15.80;99.90;;;;;;5022024;28;20916;-82
2021/09/24 01:11:32;;;;;;;6.17;3.97;;;15.70;99.90;;;;;;5020737;28;20504;-81
2021/09/24 01:14:02;;;;;;;7.33;4.00;;;15.60;99.90;;;;;;5021464;28;20188;-81
2021/09/24 01:16:27;;;;;;;4.30;3.90;;;15.60;99.90;;;;;;5020884;28;20393;-81
2021/09/24 01:18:53;;;;;;;7.97;4.20;;;15.50;99.90;;;;;;5020354;28;20873;-81
2021/09/24 01:21:19;;;;;;;6.67;4.27;;;15.50;99.90;;;;;;5020342;28;20212;-81
2021/09/24 01:23:45;;;;;;;10.13;4.20;;;15.40;99.90;;;;;;5021310;28;20176;-81
2021/09/24 01:26:10;;;;;;;4.50;3.97;;;15.60;99.90;;;;;;5021162;28;20170;-81
2021/09/24 01:28:38;;;;;;;8.13;5.57;;;15.60;99.90;;;;;;5021478;28;20168;-81
2021/09/24 01:31:05;;;;;;;6.53;4.30;;;15.80;99.90;;;;;;5021675;28;20196;-79
2021/09/24 01:33:31;;;;;;;6.20;4.20;;;16.00;99.90;;;;;;5021849;28;20401;-81
2021/09/24 01:35:58;;;;;;;9.03;4.30;;;16.00;99.90;;;;;;5036781;28;20443;-81
2021/09/24 01:38:24;;;;;;;7.93;3.97;;;16.10;99.90;;;;;;5020398;28;20165;-81
2021/09/24 01:40:50;;;;;;;5.80;5.33;;;16.10;99.90;;;;;;5020795;28;20392;-81
2021/09/24 01:43:16;;;;;;;6.13;4.47;;;16.10;99.90;;;;;;5020345;28;20197;-81
2021/09/24 01:45:41;;;;;;;4.70;4.10;;;16.10;99.90;;;;;;5020597;28;20467;-80
2021/09/24 01:48:08;;;;;;;15.60;4.63;;;16.20;99.90;;;;;;5022410;28;20173;-79
2021/09/24 01:50:34;;;;;;;5.40;4.10;;;16.10;99.90;;;;;;5021864;28;20204;-81
2021/09/24 01:53:00;;;;;;;4.77;4.37;;;16.10;99.90;;;;;;5021411;28;20732;-81
2021/09/24 01:55:26;;;;;;;8.87;4.67;;;16.00;99.90;;;;;;5021124;28;20411;-80
2021/09/24 01:57:52;;;;;;;5.17;4.17;;;16.00;99.90;;;;;;5019116;28;20565;-81
2021/09/24 02:00:17;;;;;;;6.90;5.30;;;16.00;99.90;;;;;;5019856;28;20165;-81
2021/09/24 02:02:43;;;;;;;4.83;4.43;;;16.00;99.90;;;;;;5020631;28;20165;-81
2021/09/24 02:05:09;;;;;;;4.47;4.07;;;15.90;99.90;;;;;;5018732;28;20273;-81
2021/09/24 02:07:35;;;;;;;5.13;3.90;;;16.00;99.90;;;;;;5018773;28;20165;-81
2021/09/24 02:10:04;;;;;;;8.27;4.80;;;16.00;99.90;;;;;;5020158;28;20443;-80
2021/09/24 02:12:30;;;;;;;7.50;6.00;;;15.70;99.90;;;;;;5019617;28;20392;-81
2021/09/24 02:14:55;;;;;;;5.73;4.40;;;15.90;99.90;;;;;;5020205;28;20403;-82
2021/09/24 02:17:21;;;;;;;4.10;3.80;;;16.00;99.90;;;;;;5020406;28;20165;-81
2021/09/24 02:19:47;;;;;;;7.47;4.60;;;15.80;99.90;;;;;;5019661;28;20161;-81
2021/09/24 02:22:13;;;;;;;4.87;3.53;;;15.90;99.90;;;;;;5019873;28;20575;-81
2021/09/24 02:24:39;;;;;;;4.63;4.23;;;16.00;99.90;;;;;;5020004;28;20260;-81
2021/09/24 02:27:07;;;;;;;10.50;5.40;;;16.00;99.90;;;;;;5020289;28;20229;-81
2021/09/24 02:29:33;;;;;;;6.23;3.93;;;16.00;99.90;;;;;;5020566;28;20196;-81
2021/09/24 02:31:59;;;;;;;3.87;3.50;;;15.90;99.90;;;;;;5019782;28;20468;-81
2021/09/24 02:34:25;;;;;;;5.77;3.80;;;15.90;99.90;;;;;;5018781;28;20219;-81
2021/09/24 02:36:51;;;;;;;6.67;4.30;;;15.90;99.90;;;;;;5017414;28;20170;-81
2021/09/24 02:39:17;;;;;;;6.30;5.10;;;16.00;99.90;;;;;;5019391;28;20288;-80
2021/09/24 02:41:42;;;;;;;4.83;4.43;;;16.00;99.90;;;;;;5019916;28;20212;-81
2021/09/24 02:44:08;;;;;;;6.53;5.00;;;16.00;99.90;;;;;;5019145;28;20176;-81
2021/09/24 02:46:34;;;;;;;4.20;3.67;;;16.00;99.90;;;;;;5001039;28;20197;-81
2021/09/24 02:49:03;;;;;;;5.63;4.43;;;16.00;99.90;;;;;;5019540;28;20391;-81
2021/09/24 02:51:29;;;;;;;8.33;4.20;;;16.00;99.90;;;;;;5019737;28;20452;-81
2021/09/24 02:53:55;;;;;;;4.10;3.27;;;16.00;99.90;;;;;;5019888;28;20404;-81
2021/09/24 02:56:21;;;;;;;5.80;4.20;;;15.90;99.90;;;;;;5019845;28;20166;-81
2021/09/24 02:58:46;;;;;;;5.53;4.30;;;15.90;99.90;;;;;;5019992;28;20706;-81
2021/09/24 03:01:12;;;;;;;7.60;4.80;;;15.90;99.90;;;;;;5019747;28;20257;-81
2021/09/24 03:03:38;;;;;;;6.17;3.33;;;15.90;99.90;;;;;;5033742;28;20196;-81
2021/09/24 03:06:04;;;;;;;5.07;4.20;;;15.90;99.90;;;;;;5019015;28;20165;-81
2021/09/24 03:08:30;;;;;;;5.10;4.33;;;15.80;99.90;;;;;;5018915;28;20347;-81
2021/09/24 03:10:56;;;;;;;4.40;4.00;;;15.80;99.90;;;;;;5034670;28;20265;-81
2021/09/24 03:13:21;;;;;;;5.17;4.10;;;15.80;99.90;;;;;;5019126;28;20792;-81
2021/09/24 03:15:47;;;;;;;5.63;4.30;;;15.80;99.90;;;;;;5018560;28;20166;-82
2021/09/24 03:18:13;;;;;;;4.80;4.33;;;15.80;99.90;;;;;;5019449;28;20170;-80
2021/09/24 03:20:39;;;;;;;4.63;4.20;;;15.80;99.90;;;;;;5019543;28;20172;-81
2021/09/24 03:23:04;;;;;;;3.80;3.50;;;15.80;99.90;;;;;;5018608;28;20626;-81
2021/09/24 03:25:30;;;;;;;4.93;3.77;;;15.70;99.90;;;;;;5019033;28;20161;-81
2021/09/24 03:27:56;;;;;;;5.90;3.83;;;15.60;99.90;;;;;;5019012;28;20196;-81
2021/09/24 03:30:22;;;;;;;12.43;4.90;;;15.70;99.90;;;;;;5019339;28;20172;-81
2021/09/24 03:32:48;;;;;;;4.53;4.13;;;15.70;99.90;;;;;;5019580;28;20187;-81
2021/09/24 03:35:14;;;;;;;5.47;4.37;;;15.70;99.90;;;;;;5018981;28;20751;-81
2021/09/24 03:37:40;;;;;;;5.60;4.27;;;15.60;99.90;;;;;;5019002;28;20188;-81
2021/09/24 03:40:07;;;;;;;5.40;4.37;;;15.60;99.90;;;;;;5019021;28;20245;-81
2021/09/24 03:42:32;;;;;;;3.90;3.60;;;15.60;99.90;;;;;;5019452;28;20462;-81
2021/09/24 03:44:58;;;;;;;3.90;3.50;;;15.60;99.90;;;;;;5021250;28;20397;-82
2021/09/24 03:47:37;;;;;;;4.90;4.50;;;15.60;99.90;;;;;;5021878;28;20162;-81
2021/09/24 03:50:04;;;;;;;5.47;3.57;;;15.60;99.90;;;;;;5022772;28;20160;-81
2021/09/24 03:52:30;;;;;;;4.50;3.87;;;15.60;99.90;;;;;;5023387;28;20460;-81
2021/09/24 03:54:56;;;;;;;7.80;4.90;;;15.70;99.90;;;;;;5023408;28;20834;-81
2021/09/24 03:57:22;;;;;;;5.60;4.07;;;15.70;99.90;;;;;;5023570;28;20275;-82
2021/09/24 03:59:47;;;;;;;4.50;3.57;;;15.60;99.90;;;;;;5023012;28;20158;-81
2021/09/24 04:02:13;;;;;;;4.43;3.70;;;15.70;99.90;;;;;;5023310;28;20591;-81
2021/09/24 04:04:40;;;;;;;4.90;4.50;;;15.60;99.90;;;;;;5022179;28;20161;-81
2021/09/24 04:07:06;;;;;;;13.03;4.20;;;15.70;99.90;;;;;;5023670;28;20542;-81
2021/09/24 04:09:32;;;;;;;4.97;4.47;;;15.50;99.90;;;;;;5023331;28;20432;-82
2021/09/24 04:12:00;;;;;;;6.50;3.80;;;15.60;99.90;;;;;;5025889;28;20440;-81
2021/09/24 04:14:26;;;;;;;5.83;4.77;;;15.60;99.90;;;;;;5025926;28;20870;-81
2021/09/24 04:16:52;;;;;;;6.40;4.13;;;15.60;99.90;;;;;;5023188;28;20392;-82
2021/09/24 04:19:19;;;;;;;5.00;3.80;;;15.70;99.90;;;;;;5022413;28;20180;-81
2021/09/24 04:21:44;;;;;;;4.07;3.77;;;15.70;99.90;;;;;;5022125;28;20169;-80
2021/09/24 04:24:10;;;;;;;9.10;4.67;;;15.70;99.90;;;;;;5022270;28;20404;-82
2021/09/24 04:26:37;;;;;;;5.40;4.90;;;15.80;99.90;;;;;;5022398;28;20591;-81
2021/09/24 04:29:05;;;;;;;7.57;5.17;;;15.80;99.90;;;;;;5036813;28;20256;-81
2021/09/24 04:31:31;;;;;;;3.77;3.23;;;15.70;99.90;;;;;;5021687;28;20844;-81
2021/09/24 04:33:57;;;;;;;6.70;3.83;;;15.70;99.90;;;;;;5021836;28;20393;-81
2021/09/24 04:36:23;;;;;;;4.63;4.13;;;15.60;99.90;;;;;;5025018;28;20158;-81
2021/09/24 04:38:49;;;;;;;5.70;4.60;;;15.70;99.90;;;;;;5022095;28;20510;-81
2021/09/24 04:41:15;;;;;;;7.20;3.60;;;15.70;99.90;;;;;;5021929;28;20256;-81
2021/09/24 04:43:40;;;;;;;8.83;4.23;;;15.50;99.90;;;;;;5021591;28;20556;-80
2021/09/24 04:46:06;;;;;;;6.07;4.20;;;15.50;99.90;;;;;;5021437;28;20408;-81
2021/09/24 04:48:32;;;;;;;8.17;3.37;;;15.60;99.90;;;;;;5021511;28;20166;-80
2021/09/24 04:50:59;;;;;;;4.17;3.53;;;15.50;99.90;;;;;;5021761;28;20235;-81
2021/09/24 04:53:26;;;;;;;6.43;3.70;;;15.50;99.90;;;;;;5021600;28;20165;-80
2021/09/24 04:55:52;;;;;;;4.00;3.70;;;15.50;99.90;;;;;;5021863;28;20389;-81
2021/09/24 04:58:18;;;;;;;5.20;4.10;;;15.50;99.90;;;;;;5036572;28;20440;-81
2021/09/24 05:00:45;;;;;;;4.63;4.10;;;15.60;99.90;;;;;;5021786;28;20176;-81
2021/09/24 05:03:14;;;;;;;5.53;5.03;;;15.60;99.90;;;;;;5020795;28;20162;-81
2021/09/24 05:05:41;;;;;;;10.40;4.10;;;15.60;99.90;;;;;;5037368;28;20396;-81
2021/09/24 05:08:06;;;;;;;5.50;4.90;;;15.50;99.90;;;;;;5022011;28;20385;-81
2021/09/24 05:10:32;;;;;;;4.10;3.70;;;15.50;99.90;;;;;;5021533;28;20470;-81
2021/09/24 05:12:58;;;;;;;4.23;3.83;;;15.60;99.90;;;;;;5019731;28;20181;-82
2021/09/24 05:15:24;;;;;;;6.87;4.20;;;15.60;99.90;;;;;;5036630;28;20397;-82
2021/09/24 05:17:50;;;;;;;7.23;3.93;;;15.50;99.90;;;;;;5021468;28;20420;-82
2021/09/24 05:20:16;;;;;;;6.73;4.63;;;15.60;99.90;;;;;;5035799;28;20392;-82
2021/09/24 05:22:51;;;;;;;4.63;4.23;;;15.60;99.90;;;;;;5019883;28;20509;-82
2021/09/24 05:25:25;;;;;;;6.50;3.67;;;15.70;99.90;;;;;;5022834;28;20161;-82
2021/09/24 05:27:54;;;;;;;4.90;4.30;;;15.70;99.90;;;;;;5021203;28;20447;-81
2021/09/24 05:30:29;;;;;;;5.57;5.00;;;15.50;99.90;;;;;;5021515;28;20411;-81
2021/09/24 05:32:58;;;;;;;4.23;3.80;;;15.60;99.90;;;;;;4989463;28;20409;-81
2021/09/24 05:35:27;;;;;;;5.60;4.43;;;15.50;99.90;;;;;;5024969;28;20482;-80
2021/09/24 05:37:55;;;;;;;6.40;4.60;;;15.50;99.90;;;;;;5006497;28;20442;-82
2021/09/24 05:40:22;;;;;;;6.73;4.73;;;15.50;99.90;;;;;;4990016;28;20428;-82
2021/09/24 05:42:50;;;;;;;6.83;4.53;;;15.60;99.90;;;;;;5004058;28;20765;-81
2021/09/24 05:45:16;;;;;;;6.90;4.03;;;15.60;99.90;;;;;;4987919;28;20501;-82
2021/09/24 05:47:45;;;;;;;6.90;4.37;;;15.60;99.90;;;;;;5003159;28;20396;-81
2021/09/24 05:50:12;;;;;;;4.97;4.20;;;15.70;99.90;;;;;;5003472;28;20418;-81
2021/09/24 05:52:43;;;;;;;10.27;5.17;;;15.50;99.90;;;;;;4941441;29;20436;-81
2021/09/24 05:55:09;;;;;;;4.70;3.97;;;15.50;99.90;;;;;;4940632;29;20418;-81
2021/09/24 05:57:35;;;;;;;4.63;4.23;;;15.60;99.90;;;;;;4940774;29;20999;-80
2021/09/24 06:00:03;;;;;;;5.47;4.23;;;15.50;99.90;;;;;;4940411;29;20479;-80
2021/09/24 06:02:36;;;;;;;4.53;4.03;;;15.50;99.90;;;;;;4929912;29;20491;-80
2021/09/24 06:05:03;;;;;;;4.60;3.87;;;15.60;99.90;;;;;;4919807;29;20492;-80
2021/09/24 06:07:28;;;;;;;7.50;4.53;;;15.60;99.90;;;;;;4922700;29;20436;-79
2021/09/24 06:09:54;;;;;;;5.30;4.90;;;15.60;99.90;;;;;;4904956;29;20491;-82
2021/09/24 06:12:20;;;;;;;4.47;4.07;;;15.60;99.90;;;;;;4922632;29;20634;-80
2021/09/24 06:14:46;;;;;;;8.50;4.30;;;15.50;99.90;;;;;;4902678;29;20316;-81
2021/09/24 06:17:12;;;;;;;6.50;4.30;;;15.50;99.90;;;;;;4901656;29;20281;-80
2021/09/24 06:19:39;;;;;;;11.83;4.07;;;15.70;99.90;;;;;;4902585;29;20647;-81
2021/09/24 06:22:06;;;;;;;5.77;4.30;;;15.70;99.90;;;;;;4902144;29;20673;-81
2021/09/24 06:24:32;;;;;;;5.27;4.77;;;15.70;99.90;;;;;;4985375;28;20925;-81
2021/09/24 06:26:58;;;;;;;6.03;5.00;;;15.70;99.90;;;;;;5006705;28;20504;-81
2021/09/24 06:29:24;;;;;;;7.40;5.50;;;15.80;99.90;;;;;;5008517;28;20465;-82
2021/09/24 06:31:50;;;;;;;5.23;4.43;;;15.80;99.90;;;;;;5010962;28;21000;-81
2021/09/24 06:34:15;;;;;;;9.83;4.70;;;15.70;99.90;;;;;;5016028;28;20195;-81
2021/09/24 06:36:41;;;;;;;4.23;3.93;;;15.80;99.90;;;;;;5016454;28;20176;-81
2021/09/24 06:39:07;;;;;;;6.20;5.17;;;15.90;99.90;;;;;;5003674;28;20408;-81
2021/09/24 06:41:33;;;;;;;8.33;5.60;;;15.90;99.90;;;;;;4981138;28;20185;-80
2021/09/24 06:43:59;;;;;;;4.63;4.23;;;16.00;99.90;;;;;;5000393;28;20253;-81
2021/09/24 06:46:25;;;;;;;6.20;5.60;;;16.00;99.90;;;;;;5008363;28;20521;-81
2021/09/24 06:48:51;;;;;;;6.33;4.60;;;16.00;99.90;;;;;;5015940;28;20173;-81
2021/09/24 06:51:16;;;;;;;9.63;5.30;;;16.10;99.90;;;;;;5018881;28;20193;-81
2021/09/24 06:53:42;;;;;;;7.10;4.97;;;16.10;99.90;;;;;;5030598;28;20559;-82
2021/09/24 06:56:08;;;;;;;7.57;5.13;;;16.10;99.90;;;;;;5014569;28;20252;-81
2021/09/24 06:58:35;;;;;;;7.07;5.30;;;16.10;99.90;;;;;;5012482;28;20224;-81
2021/09/24 07:01:02;;;;;;;8.03;5.10;;;16.20;99.90;;;;;;5010256;28;20512;-81
2021/09/24 07:03:27;;;;;;;6.50;5.10;;;16.20;99.90;;;;;;5009911;28;20431;-80
2021/09/24 07:05:53;;;;;;;5.87;4.60;;;16.30;99.90;;;;;;5010785;28;20429;-79
2021/09/24 07:08:19;;;;;;;12.93;5.60;;;16.40;99.90;;;;;;5009183;28;20208;-83
2021/09/24 07:10:45;;;;;;;9.50;6.33;;;16.40;99.90;;;;;;5015144;28;20227;-81
2021/09/24 07:13:11;;;;;;;7.80;5.07;;;16.40;99.90;;;;;;5006390;28;20504;-82
2021/09/24 07:15:42;;;;;;;7.10;5.83;;;16.40;99.90;;;;;;5013624;28;20416;-81
2021/09/24 07:18:09;;;;;;;9.00;5.90;;;16.50;99.90;;;;;;5007147;28;20415;-81
2021/09/24 07:20:35;;;;;;;13.17;5.63;;;16.50;99.90;;;;;;5017125;28;20412;-81
2021/09/24 07:23:01;;;;;;;7.90;6.40;;;16.50;99.90;;;;;;5020735;28;20439;-79
2021/09/24 07:25:55;;;;;;;6.27;5.60;;;16.50;99.90;;;;;;5017252;28;20432;-83
2021/09/24 07:28:32;;;;;;;8.07;6.40;;;16.50;99.90;;;;;;4974229;28;20730;-82
2021/09/24 07:31:05;;;;;;;12.13;6.17;;;16.50;99.90;;;;;;4988930;28;20449;-82
2021/09/24 07:33:35;;;;;;;11.00;6.20;;;16.60;99.90;;;;;;4965712;29;20984;-81
2021/09/24 07:36:02;;;;;;;6.20;5.70;;;16.50;99.90;;;;;;4921573;29;20478;-82
2021/09/24 07:38:29;;;;;;;8.63;6.50;;;16.60;99.90;;;;;;4929636;29;20431;-83
2021/09/24 07:40:57;;;;;;;6.40;5.30;;;16.60;99.90;;;;;;4933000;29;20450;-81
2021/09/24 07:43:23;;;;;;;11.10;6.10;;;16.60;99.90;;;;;;4949249;29;20457;-82
2021/09/24 07:45:50;;;;;;;6.70;5.90;;;16.70;99.90;;;;;;4895129;29;20437;-82
2021/09/24 07:48:15;;;;;;;9.17;4.77;;;16.70;99.90;;;;;;4927432;29;20460;-81
2021/09/24 07:50:46;;;;;;;5.67;5.10;;;16.70;99.90;;;;;;4877346;29;20643;-83
2021/09/24 07:53:23;;;;;;;7.07;6.00;;;16.70;99.90;;;;;;4910651;29;20455;-83
2021/09/24 07:55:53;;;;;;;5.83;5.27;;;16.50;99.90;;;;;;4926348;29;20437;-82
2021/09/24 07:58:19;;;;;;;6.37;5.10;;;16.60;99.90;;;;;;4866165;29;20471;-80
2021/09/24 08:00:46;;;;;;;7.90;5.63;;;16.60;99.90;;;;;;4924550;29;20447;-82
2021/09/24 08:03:18;;;;;;;13.73;6.27;;;16.70;99.90;;;;;;4905084;29;20215;-82
2021/09/24 08:05:59;;;;;;;5.20;4.70;;;16.70;99.90;;;;;;4900208;29;20412;-82
2021/09/24 08:08:55;;;;;;;7.60;5.77;;;16.70;99.90;;;;;;4905607;29;20452;-83
2021/09/24 08:11:44;;;;;;;5.17;4.67;;;16.80;99.90;;;;;;4854252;29;20468;-82
2021/09/24 08:14:14;;;;;;;7.30;5.20;;;16.70;99.90;;;;;;4778551;29;20439;-83
2021/09/24 08:16:43;;;;;;;5.43;4.60;;;16.80;99.90;;;;;;4796430;30;20522;-83
2021/09/24 08:19:11;;;;;;;7.40;5.30;;;16.80;99.90;;;;;;4774586;29;20494;-82
2021/09/24 08:21:46;;;;;;;4.93;4.10;;;16.70;99.90;;;;;;4813543;29;20458;-81
2021/09/24 08:24:35;;;;;;;6.97;4.50;;;16.80;99.90;;;;;;4853672;29;20432;-83
2021/09/24 08:27:28;;;;;;;7.07;5.50;;;16.80;99.90;;;;;;4848944;29;20424;-83
2021/09/24 08:30:01;;;;;;;7.07;5.50;;;16.90;99.90;;;;;;4835364;29;20487;-83
2021/09/24 08:33:10;;;;;;;10.03;7.40;;;16.80;99.90;;;;;;4818960;29;20885;-83
2021/09/24 08:36:00;;;;;;;5.23;4.73;;;16.90;99.90;;;;;;4859925;29;20981;-83
2021/09/24 08:38:27;;;;;;;9.43;5.27;;;17.00;99.90;;;;;;4847864;29;20440;-83
2021/09/24 08:40:53;;;;;;;9.10;6.27;;;17.00;99.90;;;;;;4816274;29;20434;-82
2021/09/24 08:43:30;;;;;;;9.50;6.00;;;17.00;99.90;;;;;;4836682;29;20415;-83
2021/09/24 08:46:07;;;;;;;9.40;6.23;;;17.00;99.90;;;;;;4822250;29;20425;-82
2021/09/24 08:48:36;;;;;;;8.73;5.47;;;17.10;99.90;;;;;;4815443;29;20476;-82
2021/09/24 08:51:05;;;;;;;7.00;6.27;;;17.10;99.90;;;;;;4809136;29;20469;-83
2021/09/24 08:53:32;;;;;;;10.60;6.33;;;17.20;99.90;;;;;;4814855;29;20446;-82
2021/09/24 08:56:01;;;;;;;8.80;5.17;;;17.20;99.90;;;;;;4817432;29;20436;-82
2021/09/24 08:58:27;;;;;;;8.37;6.10;;;17.20;99.90;;;;;;4821512;29;20518;-82
2021/09/24 09:00:56;;;;;;;10.47;7.03;;;17.30;99.90;;;;;;4798192;29;20856;-82
2021/09/24 09:03:22;;;;;;;9.57;7.70;;;17.40;99.90;;;;;;4787461;29;20546;-82
2021/09/24 09:05:54;;;;;;;8.40;6.73;;;17.40;99.90;;;;;;4797815;29;20546;-82
2021/09/24 09:08:24;;;;;;;8.77;6.83;;;17.50;99.90;;;;;;4793140;30;20471;-81
2021/09/24 09:11:06;;;;;;;9.33;6.87;;;17.50;99.90;;;;;;4787473;29;20506;-81
2021/09/24 09:13:39;;;;;;;10.13;6.27;;;17.60;99.90;;;;;;4803834;29;20485;-81
2021/09/24 09:16:16;;;;;;;9.30;6.93;;;17.60;99.90;;;;;;4840179;29;20866;-81
2021/09/24 09:18:46;;;;;;;13.03;6.93;;;17.60;99.90;;;;;;4830391;29;20448;-82
2021/09/24 09:21:15;;;;;;;8.20;6.30;;;17.70;99.90;;;;;;4830756;29;20499;-82
2021/09/24 09:23:47;;;;;;;10.23;6.30;;;17.70;99.90;;;;;;4845554;29;20440;-82
2021/09/24 09:26:16;;;;;;;7.50;6.70;;;17.80;99.90;;;;;;4848956;29;20563;-81
2021/09/24 09:28:58;;;;;;;11.83;7.47;;;17.80;99.90;;;;;;4849397;29;20790;-81
2021/09/24 09:31:31;;;;;;;8.27;5.60;;;17.90;99.90;;;;;;4935756;28;20513;-81
2021/09/24 09:34:03;;;;;;;8.70;6.73;;;18.00;99.90;;;;;;4980690;28;20414;-82
2021/09/24 09:36:39;;;;;;;8.10;6.23;;;18.00;99.90;;;;;;5007860;28;20419;-82
2021/09/24 09:39:15;;;;;;;8.07;6.30;;;17.90;99.90;;;;;;5017781;28;20416;-81
2021/09/24 09:41:50;;;;;;;8.67;6.47;;;18.10;99.90;;;;;;5019984;28;20769;-82
2021/09/24 09:44:26;;;;;;;7.13;5.10;;;18.20;99.90;;;;;;5020337;28;20432;-81
2021/09/24 09:46:52;;;;;;;12.30;6.40;;;18.20;99.90;;;;;;5013250;28;20424;-81
2021/09/24 09:49:18;;;;;;;6.80;6.10;;;18.30;99.90;;;;;;4994919;28;20707;-80
2021/09/24 09:51:47;;;;;;;10.20;7.70;;;18.30;99.90;;;;;;5019159;28;20483;-81
2021/09/24 09:54:28;;;;;;;7.33;5.30;;;18.20;99.90;;;;;;5020415;28;20578;-82
2021/09/24 09:57:10;;;;;;;6.23;5.20;;;18.40;99.90;;;;;;5009887;28;20432;-82
2021/09/24 09:59:36;;;;;;;7.40;6.70;;;18.50;99.90;;;;;;5016579;28;20869;-82
2021/09/24 10:02:15;;;;;;;11.40;6.27;;;18.60;99.90;;;;;;5014995;28;20486;-82
2021/09/24 10:04:46;;;;;;;7.50;6.07;;;18.70;99.90;;;;;;5012224;28;20636;-81
2021/09/24 10:07:16;;;;;;;10.00;6.37;;;18.70;99.90;;;;;;5016565;28;20454;-80
2021/09/24 10:09:43;;;;;;;9.50;5.63;;;18.80;99.90;;;;;;5014698;28;20504;-82
2021/09/24 10:12:24;;;;;;;8.03;5.77;;;18.80;99.90;;;;;;5016442;28;20554;-80
2021/09/24 10:14:52;;;;;;;10.50;7.60;;;19.10;99.90;;;;;;5018089;28;20412;-81
2021/09/24 10:17:20;;;;;;;10.63;5.47;;;19.30;99.90;;;;;;5017050;28;20519;-81
2021/09/24 10:19:47;;;;;;;17.90;6.13;;;19.50;99.90;;;;;;5014512;28;20428;-81
2021/09/24 10:22:13;;;;;;;7.40;6.07;;;19.80;99.90;;;;;;5017931;28;20424;-81
2021/09/24 10:24:40;;;;;;;8.53;6.10;;;20.00;99.90;;;;;;5011682;28;20502;-82
2021/09/24 10:27:11;;;;;;;9.10;6.40;;;20.00;99.90;;;;;;5017070;28;20428;-82
2021/09/24 10:29:43;;;;;;;7.67;6.37;;;19.80;99.90;;;;;;5018629;28;20480;-81
2021/09/24 10:32:15;;;;;;;6.80;6.10;;;19.40;99.90;;;;;;5010014;28;20449;-81
2021/09/24 10:34:58;;;;;;;8.63;5.93;;;19.70;99.90;;;;;;5008800;28;20481;-82
2021/09/24 10:37:25;;;;;;;8.53;5.80;;;19.90;99.90;;;;;;5000406;28;20417;-80
2021/09/24 10:39:58;;;;;;;6.80;6.07;;;19.70;99.90;;;;;;5014846;28;20504;-81
2021/09/24 10:42:43;;;;;;;7.00;6.30;;;19.80;99.90;;;;;;5008036;28;20425;-81
2021/09/24 10:45:21;;;;;;;6.70;5.43;;;19.50;99.90;;;;;;5001910;28;20773;-79
2021/09/24 10:48:04;;;;;;;6.90;6.20;;;19.30;99.90;;;;;;5001205;28;20419;-82
2021/09/24 10:50:52;;;;;;;6.63;5.53;;;19.60;99.90;;;;;;5004317;28;20424;-82
2021/09/24 10:53:34;;;;;;;7.67;5.47;;;20.00;99.90;;;;;;4997553;28;20394;-81
2021/09/24 10:56:21;;;;;;;6.00;4.80;;;20.20;99.90;;;;;;5010494;28;20542;-81
2021/09/24 10:58:47;;;;;;;6.90;6.20;;;20.10;99.90;;;;;;5017516;28;20463;-81
2021/09/24 11:01:30;;;;;;;6.47;5.87;;;20.10;99.90;;;;;;5018403;28;20396;-82
2021/09/24 11:04:10;;;;;;;6.80;5.90;;;19.90;99.90;;;;;;5019652;28;20190;-82
2021/09/24 11:06:42;;;;;;;8.13;5.70;;;19.80;99.90;;;;;;5019676;28;20400;-82
2021/09/24 11:09:29;;;;;;;7.23;5.33;;;19.70;99.90;;;;;;5018225;28;20420;-80
2021/09/24 11:12:10;;;;;;;8.67;6.27;;;19.80;99.90;;;;;;5015957;28;20831;-79
2021/09/24 11:14:42;;;;;;;6.47;5.57;;;19.50;99.90;;;;;;5000558;28;20514;-77
2021/09/24 11:17:11;;;;;;;6.60;5.70;;;19.60;99.90;;;;;;5020024;28;20535;-82
2021/09/24 11:19:46;;;;;;;6.87;5.87;;;19.70;99.90;;;;;;4983282;28;20410;-79
2021/09/24 11:22:37;;;;;;;8.83;5.07;;;19.80;99.90;;;;;;4980271;28;20707;-82
2021/09/24 11:25:09;;;;;;;8.47;5.93;;;19.80;99.90;;;;;;4961336;28;20438;-82
2021/09/24 11:27:39;;;;;;;6.37;4.73;;;19.40;99.90;;;;;;4958880;29;20426;-81
2021/09/24 11:30:13;;;;;;;6.20;5.60;;;19.70;99.90;;;;;;4942009;29;20411;-82
2021/09/24 11:32:41;;;;;;;5.17;4.50;;;19.50;99.90;;;;;;4942889;29;20864;-82
2021/09/24 11:35:09;;;;;;;5.40;4.90;;;19.70;99.90;;;;;;4958950;29;20502;-81
2021/09/24 11:37:38;;;;;;;8.77;5.37;;;19.90;99.90;;;;;;4942825;29;20876;-81
2021/09/24 11:40:08;;;;;;;5.73;5.13;;;19.70;99.90;;;;;;4957593;28;20966;-82
2021/09/24 11:42:39;;;;;;;5.50;5.00;;;19.90;99.90;;;;;;4984267;28;20421;-81
2021/09/24 11:45:08;;;;;;;6.77;4.57;;;19.80;99.90;;;;;;4965124;28;20501;-82
2021/09/24 11:47:39;;;;;;;8.70;5.77;;;19.90;99.90;;;;;;4958247;28;20507;-81
2021/09/24 11:50:14;;;;;;;5.63;5.07;;;19.90;99.90;;;;;;4976910;28;20431;-82
2021/09/24 11:52:48;;;;;;;7.20;4.80;;;19.90;99.90;;;;;;5016398;28;20479;-82
2021/09/24 11:55:36;;;;;;;4.70;4.17;;;20.00;99.90;;;;;;4984800;28;20399;-82
2021/09/24 11:58:08;;;;;;;10.93;4.57;;;20.10;99.90;;;;;;5002312;28;20554;-82
2021/09/24 12:00:46;;;;;;;4.30;3.90;;;20.20;99.90;;;;;;4999718;28;20408;-81
2021/09/24 12:03:28;;;;;;;5.27;4.57;;;20.30;99.90;;;;;;4980203;28;20483;-81
2021/09/24 12:05:58;;;;;;;5.73;5.20;;;20.20;99.90;;;;;;4995297;28;20423;-81
2021/09/24 12:08:28;;;;;;;5.10;4.70;;;20.20;99.90;;;;;;4961782;28;20438;-80
2021/09/24 12:10:57;;;;;;;7.50;5.17;;;20.20;99.90;;;;;;4963492;28;20473;-81
2021/09/24 12:13:33;;;;;;;6.10;4.40;;;20.30;99.90;;;;;;4961225;29;20431;-82
2021/09/24 12:16:00;;;;;;;6.83;4.70;;;20.30;99.90;;;;;;4963292;28;20926;-82
2021/09/24 12:19:02;;;;;;;4.20;3.80;;;20.10;99.90;;;;;;4961069;29;20508;-81
2021/09/24 12:21:50;;;;;;;6.10;4.57;;;20.00;99.90;;;;;;4969613;28;20417;-81
2021/09/24 12:24:33;;;;;;;4.30;3.90;;;20.10;99.90;;;;;;4979414;28;20429;-82
2021/09/24 12:27:19;;;;;;;4.80;4.40;;;20.10;99.90;;;;;;4945057;29;20410;-81
2021/09/24 12:29:46;;;;;;;7.00;3.43;;;19.80;99.90;;;;;;4960344;29;20423;-80
2021/09/24 12:32:16;;;;;;;6.23;4.03;;;19.50;99.90;;;;;;4936574;28;20442;-81
2021/09/24 12:34:47;;;;;;;8.73;4.13;;;19.80;99.90;;;;;;4963329;28;20786;-82
2021/09/24 12:37:15;;;;;;;4.13;3.73;;;19.50;99.90;;;;;;4979619;28;20402;-82
2021/09/24 12:39:44;;;;;;;6.63;3.77;;;19.70;99.90;;;;;;5006191;28;20757;-82
2021/09/24 12:42:13;;;;;;;5.17;3.63;;;19.90;99.90;;;;;;5020816;28;20527;-81
2021/09/24 12:44:58;;;;;;;6.30;3.97;;;20.00;99.90;;;;;;5019691;28;20396;-82
2021/09/24 12:47:28;;;;;;;6.70;3.43;;;19.90;99.90;;;;;;5019301;28;20392;-82
2021/09/24 12:49:56;;;;;;;4.27;3.87;;;19.70;99.90;;;;;;5019688;28;20427;-81
2021/09/24 12:52:25;;;;;;;13.53;3.80;;;19.80;99.90;;;;;;5020295;28;20748;-82
2021/09/24 12:54:51;;;;;;;4.00;2.83;;;19.90;99.90;;;;;;5019244;28;20404;-81
2021/09/24 12:57:19;;;;;;;4.87;2.80;;;20.00;99.90;;;;;;5020339;28;20440;-81